Chester, Utah
Current Conditions -  °F | °C
As of 12:53 AM on Friday 24 Oct 2014 (Local Time) from KPUC Reporting Station
Clear Clear  
Wind Chill: 45°   Ceiling: Unl
Heat Index: 47°   Visibility: 10mi
Dew Point: 33°   Wind: 5mph
Humidity: 59%   Direction: 20°NNE
Pressure: 30.24"   Gusts: NA
Location:  39.48°N, 111.56°W
Report Text: KPUC 240653Z AUTO 02004KT 10SM CLR 08/01 A3024 RMK AO2 SLP210 T00830006 401940044 TSNO
Loading
Personal Weather Stations






























Interactive Weather Map
Tropical Storm Tracking
New forecast layout! Learn more

10-Day Weather Forecast

Advertisements
Track Severe Weather on mobile